Mansfield, OH

9:29 AM EST on December 20, 2014 (GMT -0500)
KD8AZQ | Change Station
CLOSE
Current Station
Personal Weather Station
Location: Mansfield, OH
Elevation: 1194 ft
Nearby Weather Stations

Elev 1194 ft 40.69 °N, 82.57 °W | Updated 4 minutes ago

Overcast
Overcast
28.0 °F
Feels Like 28 °F
N
0.0
Wind Variable Wind from NW
Gusts 4.0 mph

Today
High -- | Low -- °F
--% Chance of Precip.
Yesterday
High -- | Low -- °F
Precip. -- in
7:50 AM 5:05 PM
Waning Crescent, 3% visible
Pressure 30.26 in
Visibility 9.0 miles
Clouds Overcast 1900 ft
Windchill 28 °F
Dew Point 24 °F
Humidity 83%
Rainfall 0.00 in
Snow Depth Not available.
UV 0 out of 12
Pollen .10 out of 12
Air Quality Not available.
Flu Activity Not available.
METAR KMFD 201352Z 00000KT 9SM OVC019 M02/M06 A3026

More Conditions Fewer Conditions

Pressure 30.26 in
Visibility 9.0 miles
Clouds Overcast 1900 ft
Windchill 28 °F
Dew Point 24 °F
Humidity 83%
Rainfall 0.00 in
Snow Depth Not available.
UV 0 out of 12
Pollen .10 out of 12
Air Quality Not available.
Flu Activity Not available.
METAR KMFD 201352Z 00000KT 9SM OVC019 M02/M06 A3026

More Conditions Fewer Conditions

10-Day Weather Forecast

Almanac

Astronomy

Dec. 20, 2014 Rise Set
Actual Time
Civil Twilight
Nautical Twilight
Astronomical Twilight
Moon
Length of Visible Light
Length of Day
Tomorrow will be .
, % of the Moon is Illuminated

Today's Extremes

State Highs State Lows

Community

WunderPhotos

Upload Photos

1,779,174 photos uploaded!

WunderBlogs® & News

Nearby

Air Quality

  Air Quality AQ Index Pollutant
Not available.

Snow Depth

Station Depth Elevation

Earthquake Activity

City Distance Mag. Time & Date
Minimum magnitude displayed is 2.5.

Coastal Water Temperatures

Place Temperature

Nearby Weather Stations